Time;durP1;ratioP1;P1;durP2;ratioP2;P2;SDS_P1;SDS_P2;PMS_P1;PMS_P2;Temp;Humidity;BMP_temperature;BMP_pressure;BME280_temperature;BME280_humidity;BME280_pressure;Samples;Min_cycle;Max_cycle;Signal;HPM_P1;HPM_P2
2021/12/16 00:01:58;;;;;;;37.93;25.03;;;;;;;;;;5027152;28;20810;-57
2021/12/16 00:29:22;;;;;;;28.23;21.63;;;;;;;;;;5027747;28;20184;-57
2021/12/16 00:31:59;;;;;;;33.50;23.40;;;;;;;;;;5027183;28;20692;-56
2021/12/16 00:34:28;;;;;;;32.87;22.03;;;;;;;;;;5028441;28;20635;-57
2021/12/16 00:36:54;;;;;;;28.23;20.53;;;;;;;;;;5027807;28;20184;-56
2021/12/16 00:39:22;;;;;;;27.40;20.43;;;;;;;;;;5028959;28;20181;-57
2021/12/16 00:41:52;;;;;;;27.07;20.57;;;;;;;;;;5026761;28;20239;-57
2021/12/16 00:47:34;;;;;;;25.87;20.37;;;;;;;;;;5004656;28;20452;-57
2021/12/16 00:50:22;;;;;;;26.47;20.17;;;;;;;;;;5026828;28;20162;-57
2021/12/16 00:55:51;;;;;;;25.53;20.70;;;;;;;;;;5027374;28;20280;-56
2021/12/16 00:58:21;;;;;;;24.87;20.50;;;;;;;;;;5027825;28;20198;-56
2021/12/16 01:01:02;;;;;;;25.23;19.87;;;;;;;;;;5025189;28;20186;-58
2021/12/16 01:03:44;;;;;;;21.77;18.10;;;;;;;;;;5027996;28;20547;-56
2021/12/16 01:09:46;;;;;;;24.63;19.23;;;;;;;;;;5031748;28;20204;-57
2021/12/16 01:54:55;;;;;;;33.57;22.77;;;;;;;;;;4995479;28;20222;-56
2021/12/16 01:57:29;;;;;;;30.33;22.77;;;;;;;;;;5011822;28;20241;-56
2021/12/16 02:00:02;;;;;;;30.87;22.03;;;;;;;;;;5009978;28;20927;-56
2021/12/16 02:02:50;;;;;;;36.00;23.60;;;;;;;;;;5012206;28;20178;-56
2021/12/16 02:10:14;;;;;;;29.50;21.90;;;;;;;;;;5010869;28;20210;-57
2021/12/16 02:12:54;;;;;;;31.40;22.63;;;;;;;;;;5012820;28;20249;-56
2021/12/16 02:37:15;;;;;;;31.30;22.97;;;;;;;;;;5010514;28;20240;-56
2021/12/16 02:39:42;;;;;;;31.20;22.67;;;;;;;;;;5009724;28;20166;-56
2021/12/16 02:42:13;;;;;;;33.03;23.37;;;;;;;;;;5010930;28;20217;-56
2021/12/16 02:48:28;;;;;;;32.23;23.30;;;;;;;;;;5009262;28;20560;-56
2021/12/16 02:50:11;;;;;;;34.57;23.90;;;;;;;;;;5007858;28;20373;-56
2021/12/16 02:52:37;;;;;;;32.13;23.90;;;;;;;;;;5008628;28;20194;-56
2021/12/16 02:55:04;;;;;;;31.30;23.30;;;;;;;;;;5015160;28;20213;-56
2021/12/16 02:57:34;;;;;;;32.07;23.23;;;;;;;;;;5028404;28;20251;-56
2021/12/16 03:00:01;;;;;;;35.20;23.10;;;;;;;;;;5023622;28;20179;-56
2021/12/16 03:02:28;;;;;;;35.13;23.57;;;;;;;;;;5027690;28;20189;-57
2021/12/16 03:04:55;;;;;;;35.63;24.67;;;;;;;;;;5014576;28;20664;-56
2021/12/16 03:07:22;;;;;;;32.47;23.17;;;;;;;;;;5028194;28;20280;-57
2021/12/16 03:15:03;;;;;;;32.93;23.50;;;;;;;;;;5010791;28;20224;-56
2021/12/16 03:17:50;;;;;;;31.10;23.57;;;;;;;;;;5028417;28;20182;-57
2021/12/16 03:20:44;;;;;;;34.93;24.80;;;;;;;;;;5022969;28;20197;-57
2021/12/16 03:26:34;;;;;;;33.07;22.93;;;;;;;;;;5028067;28;20244;-56
2021/12/16 03:29:58;;;;;;;31.37;22.67;;;;;;;;;;5027917;28;20247;-57
2021/12/16 03:39:42;;;;;;;33.80;22.67;;;;;;;;;;5038806;28;20181;-57
2021/12/16 03:42:09;;;;;;;31.93;25.23;;;;;;;;;;5028217;28;20612;-57
2021/12/16 03:45:00;;;;;;;34.03;23.30;;;;;;;;;;5027502;28;20178;-57
2021/12/16 03:47:30;;;;;;;34.27;24.27;;;;;;;;;;5029062;28;20625;-56
2021/12/16 03:49:56;;;;;;;36.33;23.50;;;;;;;;;;5026746;28;20228;-56
2021/12/16 03:52:23;;;;;;;33.00;22.87;;;;;;;;;;5024948;28;20487;-56
2021/12/16 03:54:52;;;;;;;32.80;23.33;;;;;;;;;;5026601;28;20580;-56
2021/12/16 03:57:20;;;;;;;33.00;24.27;;;;;;;;;;5029794;28;20898;-56
2021/12/16 03:59:47;;;;;;;36.00;23.37;;;;;;;;;;5032903;28;20712;-57
2021/12/16 04:02:16;;;;;;;32.40;23.20;;;;;;;;;;5031381;28;20177;-56
2021/12/16 04:04:43;;;;;;;35.97;24.20;;;;;;;;;;5028024;28;20264;-57
2021/12/16 04:07:09;;;;;;;31.97;23.23;;;;;;;;;;5035294;28;20198;-57
2021/12/16 04:09:35;;;;;;;30.30;22.53;;;;;;;;;;5028236;28;20232;-57
2021/12/16 04:12:11;;;;;;;36.53;25.40;;;;;;;;;;5028254;28;20272;-56
2021/12/16 04:14:39;;;;;;;31.90;23.37;;;;;;;;;;5034076;28;20688;-56
2021/12/16 04:17:06;;;;;;;33.10;24.80;;;;;;;;;;5009949;28;20182;-57
2021/12/16 04:19:33;;;;;;;31.20;22.77;;;;;;;;;;5028110;28;20178;-56
2021/12/16 04:22:20;;;;;;;33.47;23.83;;;;;;;;;;5021987;28;20268;-57
2021/12/16 04:24:47;;;;;;;35.00;22.40;;;;;;;;;;5026254;28;20361;-57
2021/12/16 04:27:15;;;;;;;35.47;25.17;;;;;;;;;;5030061;28;20197;-56
2021/12/16 04:29:41;;;;;;;32.77;23.73;;;;;;;;;;5026448;28;20269;-56
2021/12/16 04:32:07;;;;;;;33.03;24.73;;;;;;;;;;5027962;28;20189;-57
2021/12/16 04:34:33;;;;;;;37.63;25.13;;;;;;;;;;5027972;28;20188;-57
2021/12/16 04:36:59;;;;;;;36.50;25.93;;;;;;;;;;5030223;28;20632;-56
2021/12/16 04:39:27;;;;;;;34.70;24.13;;;;;;;;;;5018373;28;20190;-57
2021/12/16 04:41:54;;;;;;;35.03;24.37;;;;;;;;;;5031149;28;20193;-56
2021/12/16 04:44:21;;;;;;;37.37;25.33;;;;;;;;;;5031481;28;20217;-57
2021/12/16 04:46:47;;;;;;;40.37;26.87;;;;;;;;;;5030730;28;20721;-56
2021/12/16 04:49:15;;;;;;;39.83;26.60;;;;;;;;;;5039114;28;20681;-57
2021/12/16 04:51:43;;;;;;;37.20;25.10;;;;;;;;;;5034659;28;20177;-57
2021/12/16 04:54:10;;;;;;;43.17;26.83;;;;;;;;;;5032413;28;20178;-57
2021/12/16 04:56:37;;;;;;;33.80;25.33;;;;;;;;;;5031464;28;20221;-57
2021/12/16 04:59:08;;;;;;;38.43;26.53;;;;;;;;;;5031324;28;20645;-57
2021/12/16 05:01:34;;;;;;;37.73;24.63;;;;;;;;;;5029769;28;20378;-57
2021/12/16 05:04:01;;;;;;;38.33;25.80;;;;;;;;;;5031397;28;20185;-57
2021/12/16 05:06:27;;;;;;;38.50;26.30;;;;;;;;;;5036754;28;20355;-57
2021/12/16 05:08:53;;;;;;;32.70;24.57;;;;;;;;;;5015933;28;20169;-57
2021/12/16 05:11:19;;;;;;;34.50;25.37;;;;;;;;;;5012889;28;20196;-56
2021/12/16 05:13:46;;;;;;;38.73;26.37;;;;;;;;;;5029799;28;20189;-57
2021/12/16 05:16:13;;;;;;;33.97;24.70;;;;;;;;;;5022233;28;20267;-57
2021/12/16 05:18:39;;;;;;;34.70;25.00;;;;;;;;;;5011562;28;20178;-56
2021/12/16 05:21:08;;;;;;;36.13;24.87;;;;;;;;;;5012536;28;20182;-57
2021/12/16 05:26:21;;;;;;;33.43;24.23;;;;;;;;;;5030641;28;20189;-57
2021/12/16 05:28:50;;;;;;;34.73;23.57;;;;;;;;;;5033797;28;20177;-57
2021/12/16 05:31:16;;;;;;;35.03;24.00;;;;;;;;;;5030081;28;20540;-57
2021/12/16 05:33:43;;;;;;;34.33;23.97;;;;;;;;;;5029799;28;20645;-57
2021/12/16 05:36:09;;;;;;;34.07;24.63;;;;;;;;;;5029917;28;20166;-56
2021/12/16 05:38:35;;;;;;;31.10;23.93;;;;;;;;;;5025707;28;20189;-57
2021/12/16 05:41:05;;;;;;;36.00;24.47;;;;;;;;;;5032269;28;20260;-57
2021/12/16 05:43:31;;;;;;;33.13;24.33;;;;;;;;;;5013072;28;20186;-57
2021/12/16 05:45:58;;;;;;;32.63;24.63;;;;;;;;;;5041651;28;20183;-57
2021/12/16 05:48:25;;;;;;;39.03;26.27;;;;;;;;;;5031526;28;20206;-57
2021/12/16 05:50:54;;;;;;;38.70;26.73;;;;;;;;;;5031124;28;20166;-57
2021/12/16 05:53:21;;;;;;;34.10;25.00;;;;;;;;;;5030912;28;20189;-56
2021/12/16 05:55:48;;;;;;;33.90;24.57;;;;;;;;;;5012545;28;20221;-56
2021/12/16 05:58:19;;;;;;;36.20;24.17;;;;;;;;;;5030175;28;20204;-56
2021/12/16 06:00:48;;;;;;;32.83;24.77;;;;;;;;;;5032114;28;20288;-57
2021/12/16 06:03:14;;;;;;;32.00;23.77;;;;;;;;;;5029833;28;20236;-57
2021/12/16 06:05:41;;;;;;;36.00;25.53;;;;;;;;;;5030085;28;20640;-57
2021/12/16 06:08:07;;;;;;;32.20;22.40;;;;;;;;;;5030290;28;20197;-57
2021/12/16 06:13:19;;;;;;;37.70;23.60;;;;;;;;;;5038435;28;20192;-56
2021/12/16 06:22:18;;;;;;;35.23;25.60;;;;;;;;;;5027827;28;20190;-56
2021/12/16 06:27:01;;;;;;;33.93;23.50;;;;;;;;;;5027741;28;20212;-57
2021/12/16 06:29:28;;;;;;;32.77;22.67;;;;;;;;;;5028449;28;20190;-56
2021/12/16 06:31:54;;;;;;;34.47;24.10;;;;;;;;;;5030148;28;20236;-57
2021/12/16 06:34:21;;;;;;;36.83;25.80;;;;;;;;;;5029098;28;20433;-56
2021/12/16 06:36:48;;;;;;;31.23;22.50;;;;;;;;;;5024831;28;20190;-57
2021/12/16 06:39:14;;;;;;;34.60;24.10;;;;;;;;;;5026010;28;20222;-57
2021/12/16 06:41:40;;;;;;;29.43;22.77;;;;;;;;;;5029322;28;20622;-56
2021/12/16 06:44:15;;;;;;;33.90;24.30;;;;;;;;;;5028475;28;20177;-57
2021/12/16 06:46:44;;;;;;;30.13;21.60;;;;;;;;;;5027004;28;20200;-57
2021/12/16 06:49:13;;;;;;;32.07;22.90;;;;;;;;;;5025816;28;20547;-56
2021/12/16 06:51:56;;;;;;;32.30;23.43;;;;;;;;;;5033804;28;20185;-56
2021/12/16 06:54:34;;;;;;;32.90;23.17;;;;;;;;;;5021027;28;20249;-56
2021/12/16 06:59:40;;;;;;;31.23;22.97;;;;;;;;;;5025526;28;20178;-57
2021/12/16 07:02:13;;;;;;;30.37;22.17;;;;;;;;;;5029146;28;20177;-56
2021/12/16 07:04:43;;;;;;;31.40;23.37;;;;;;;;;;5029075;28;20178;-56
2021/12/16 07:07:09;;;;;;;31.60;22.77;;;;;;;;;;5012743;28;20212;-57
2021/12/16 07:09:36;;;;;;;32.03;23.10;;;;;;;;;;5027768;28;20173;-56
2021/12/16 07:12:03;;;;;;;32.40;23.50;;;;;;;;;;5028750;28;20426;-57
2021/12/16 07:14:36;;;;;;;33.73;23.67;;;;;;;;;;5022388;28;20177;-56
2021/12/16 07:17:04;;;;;;;32.77;23.33;;;;;;;;;;5022178;28;20774;-56
2021/12/16 07:19:30;;;;;;;28.90;22.70;;;;;;;;;;5028925;28;20206;-57
2021/12/16 07:21:56;;;;;;;33.40;21.80;;;;;;;;;;5029111;28;20182;-57
2021/12/16 07:24:22;;;;;;;33.93;23.10;;;;;;;;;;5029044;28;20703;-56
2021/12/16 07:26:49;;;;;;;33.53;23.33;;;;;;;;;;5030500;28;20270;-57
2021/12/16 07:29:15;;;;;;;35.03;24.30;;;;;;;;;;5029619;28;20178;-57
2021/12/16 07:31:41;;;;;;;32.10;23.90;;;;;;;;;;5027326;28;20178;-57
2021/12/16 07:34:08;;;;;;;33.50;23.40;;;;;;;;;;5028896;28;20181;-55
2021/12/16 07:36:35;;;;;;;30.87;22.23;;;;;;;;;;5033278;28;20222;-57
2021/12/16 07:39:04;;;;;;;33.67;22.90;;;;;;;;;;5032609;28;20251;-56
2021/12/16 07:41:33;;;;;;;30.07;22.77;;;;;;;;;;5028394;28;20184;-57
2021/12/16 07:44:09;;;;;;;34.17;21.97;;;;;;;;;;5027263;28;20243;-57
2021/12/16 07:46:36;;;;;;;33.33;23.30;;;;;;;;;;5020342;28;20213;-56
2021/12/16 07:49:03;;;;;;;29.50;22.17;;;;;;;;;;5027252;28;20177;-57
2021/12/16 07:51:29;;;;;;;35.03;23.60;;;;;;;;;;5025698;28;20181;-57
2021/12/16 07:53:56;;;;;;;31.80;22.77;;;;;;;;;;5031126;28;20264;-57
2021/12/16 07:56:22;;;;;;;33.40;23.80;;;;;;;;;;5028050;28;20279;-56
2021/12/16 07:58:48;;;;;;;35.83;24.47;;;;;;;;;;5029333;28;20644;-56
2021/12/16 08:01:14;;;;;;;34.53;24.03;;;;;;;;;;5028126;28;20207;-57
2021/12/16 08:03:42;;;;;;;35.00;23.70;;;;;;;;;;5030481;28;20186;-57
2021/12/16 08:06:10;;;;;;;34.00;23.83;;;;;;;;;;5010275;28;20181;-57
2021/12/16 08:08:37;;;;;;;33.37;22.63;;;;;;;;;;5030766;28;20186;-57
2021/12/16 08:11:04;;;;;;;35.53;23.77;;;;;;;;;;5029593;28;20677;-56
2021/12/16 08:13:30;;;;;;;33.97;24.40;;;;;;;;;;5029162;28;20178;-57
2021/12/16 08:15:56;;;;;;;35.50;25.00;;;;;;;;;;5026621;28;20240;-57
2021/12/16 08:18:22;;;;;;;36.17;25.70;;;;;;;;;;5030677;28;20681;-57
2021/12/16 08:20:48;;;;;;;35.37;24.43;;;;;;;;;;5028761;28;20182;-57
2021/12/16 08:23:14;;;;;;;35.90;24.70;;;;;;;;;;5028203;28;20193;-57
2021/12/16 08:25:40;;;;;;;34.63;23.83;;;;;;;;;;5027947;28;20274;-57
2021/12/16 08:28:06;;;;;;;37.87;24.43;;;;;;;;;;5028695;28;20194;-57
2021/12/16 08:30:35;;;;;;;35.97;25.67;;;;;;;;;;5027284;28;20579;-56
2021/12/16 08:33:05;;;;;;;35.03;24.03;;;;;;;;;;5029087;28;20484;-57
2021/12/16 08:35:32;;;;;;;39.23;26.93;;;;;;;;;;5029279;28;20177;-57
2021/12/16 08:37:58;;;;;;;37.27;24.27;;;;;;;;;;5027310;28;20956;-56
2021/12/16 08:40:25;;;;;;;36.17;24.53;;;;;;;;;;5028339;28;20178;-57
2021/12/16 08:42:51;;;;;;;35.87;24.70;;;;;;;;;;5029039;28;20212;-57
2021/12/16 08:45:19;;;;;;;35.53;23.87;;;;;;;;;;5009442;28;20797;-56
2021/12/16 08:47:45;;;;;;;33.47;23.63;;;;;;;;;;5032598;28;20280;-57
2021/12/16 08:50:13;;;;;;;38.70;25.03;;;;;;;;;;5016430;28;20226;-57
2021/12/16 08:52:39;;;;;;;38.57;24.67;;;;;;;;;;5029543;28;20182;-57
2021/12/16 08:55:06;;;;;;;37.03;25.00;;;;;;;;;;5028098;28;20185;-57
2021/12/16 08:57:32;;;;;;;31.87;23.33;;;;;;;;;;4995124;28;20709;-56
2021/12/16 08:59:58;;;;;;;32.13;23.10;;;;;;;;;;5011466;28;20210;-56
2021/12/16 09:02:24;;;;;;;40.70;24.60;;;;;;;;;;5010249;28;20196;-57
2021/12/16 09:04:51;;;;;;;34.47;23.23;;;;;;;;;;5007265;28;20233;-57
2021/12/16 09:07:17;;;;;;;37.23;25.53;;;;;;;;;;5008935;28;20585;-56
2021/12/16 09:09:45;;;;;;;33.47;23.70;;;;;;;;;;5007330;28;20187;-57
2021/12/16 09:12:26;;;;;;;36.83;24.87;;;;;;;;;;5008318;28;20182;-57
2021/12/16 09:14:52;;;;;;;38.77;24.77;;;;;;;;;;5005389;28;20558;-57
2021/12/16 09:17:18;;;;;;;34.77;23.43;;;;;;;;;;4991576;28;20182;-56
2021/12/16 09:19:46;;;;;;;34.10;24.13;;;;;;;;;;5006475;28;20186;-56
2021/12/16 09:22:15;;;;;;;34.07;23.33;;;;;;;;;;4990729;28;20193;-57
2021/12/16 09:24:41;;;;;;;34.87;23.33;;;;;;;;;;4993330;28;20236;-57
2021/12/16 09:27:08;;;;;;;31.47;22.73;;;;;;;;;;5014836;28;20202;-57
2021/12/16 09:29:34;;;;;;;33.33;23.60;;;;;;;;;;5014882;28;20305;-56
2021/12/16 09:32:02;;;;;;;34.73;23.30;;;;;;;;;;5011399;28;20578;-57
2021/12/16 09:34:29;;;;;;;33.93;23.90;;;;;;;;;;5015762;28;20550;-57
2021/12/16 09:36:55;;;;;;;34.90;23.67;;;;;;;;;;5016493;28;20273;-57
2021/12/16 09:39:24;;;;;;;32.87;22.43;;;;;;;;;;5017616;28;20249;-57
2021/12/16 09:41:50;;;;;;;33.30;22.60;;;;;;;;;;5012968;28;20191;-57
2021/12/16 09:44:17;;;;;;;33.83;23.23;;;;;;;;;;5017194;28;20186;-57
2021/12/16 09:46:45;;;;;;;35.50;24.20;;;;;;;;;;5010670;28;20202;-57
2021/12/16 09:49:11;;;;;;;36.17;23.27;;;;;;;;;;4999602;28;20186;-57
2021/12/16 09:51:41;;;;;;;32.87;22.50;;;;;;;;;;5011046;28;20213;-57
2021/12/16 09:54:11;;;;;;;31.00;22.53;;;;;;;;;;5017492;28;20183;-57
2021/12/16 09:56:39;;;;;;;35.67;23.43;;;;;;;;;;5025798;28;20645;-57
2021/12/16 09:59:07;;;;;;;38.87;24.40;;;;;;;;;;5030761;28;20184;-57
2021/12/16 10:01:34;;;;;;;35.03;24.23;;;;;;;;;;5010492;28;20197;-56
2021/12/16 10:04:03;;;;;;;32.77;23.93;;;;;;;;;;5013083;28;20186;-57
2021/12/16 10:06:29;;;;;;;34.17;22.73;;;;;;;;;;5029996;28;20212;-57
2021/12/16 10:08:56;;;;;;;35.03;24.47;;;;;;;;;;5031249;28;20185;-57
2021/12/16 10:11:22;;;;;;;32.37;23.13;;;;;;;;;;5012109;28;20180;-57
2021/12/16 10:19:12;;;;;;;33.47;23.43;;;;;;;;;;5023040;28;20180;-56
2021/12/16 10:21:41;;;;;;;34.50;21.97;;;;;;;;;;5013977;28;20186;-57
2021/12/16 10:24:20;;;;;;;37.33;23.53;;;;;;;;;;5037967;28;20617;-57
2021/12/16 10:26:46;;;;;;;36.80;23.93;;;;;;;;;;5025270;28;20197;-56
2021/12/16 10:29:12;;;;;;;34.73;24.07;;;;;;;;;;5008189;28;20220;-57
2021/12/16 10:31:39;;;;;;;35.10;23.63;;;;;;;;;;5032701;28;20247;-57
2021/12/16 10:34:07;;;;;;;37.17;23.33;;;;;;;;;;5015856;28;20301;-57
2021/12/16 10:36:35;;;;;;;35.40;23.73;;;;;;;;;;5039923;28;20173;-57
2021/12/16 10:39:04;;;;;;;36.03;24.20;;;;;;;;;;5038144;28;20312;-57
2021/12/16 10:41:36;;;;;;;36.07;23.93;;;;;;;;;;5030410;28;20613;-56
2021/12/16 10:44:02;;;;;;;36.50;24.17;;;;;;;;;;5027508;28;20180;-57
2021/12/16 10:46:33;;;;;;;35.37;23.60;;;;;;;;;;5029061;28;20186;-57
2021/12/16 10:49:07;;;;;;;32.40;22.17;;;;;;;;;;5026394;28;20174;-57
2021/12/16 10:51:42;;;;;;;37.07;24.33;;;;;;;;;;5029210;28;20260;-57
2021/12/16 10:54:11;;;;;;;36.10;24.30;;;;;;;;;;5030597;28;20184;-57
2021/12/16 10:57:12;;;;;;;36.50;23.80;;;;;;;;;;5015994;28;20230;-57
2021/12/16 10:59:44;;;;;;;35.17;23.87;;;;;;;;;;4941815;29;20251;-57
2021/12/16 11:02:10;;;;;;;35.43;23.87;;;;;;;;;;4997783;28;20194;-57
2021/12/16 11:04:42;;;;;;;37.17;24.53;;;;;;;;;;5021054;28;20816;-57
2021/12/16 11:07:08;;;;;;;39.00;24.10;;;;;;;;;;4986006;28;20265;-57
2021/12/16 11:09:39;;;;;;;37.80;23.70;;;;;;;;;;4998876;28;20673;-57
2021/12/16 11:12:05;;;;;;;36.33;24.33;;;;;;;;;;5015626;28;20183;-57
2021/12/16 11:14:32;;;;;;;46.20;26.83;;;;;;;;;;5014526;28;20257;-56
2021/12/16 11:17:05;;;;;;;40.47;26.63;;;;;;;;;;5010202;28;20308;-57
2021/12/16 11:19:40;;;;;;;41.20;26.33;;;;;;;;;;5003467;28;20178;-56
2021/12/16 11:22:07;;;;;;;40.40;26.33;;;;;;;;;;5010367;28;20629;-57
2021/12/16 11:24:33;;;;;;;44.63;26.40;;;;;;;;;;5019399;28;20178;-56
2021/12/16 11:26:59;;;;;;;43.67;28.23;;;;;;;;;;5006537;28;20249;-57
2021/12/16 11:29:31;;;;;;;45.60;27.20;;;;;;;;;;5006745;28;20174;-56
2021/12/16 11:31:57;;;;;;;43.37;25.07;;;;;;;;;;5006945;28;20190;-56
2021/12/16 11:34:24;;;;;;;37.57;25.37;;;;;;;;;;5001336;28;20260;-56
2021/12/16 11:36:54;;;;;;;37.23;25.00;;;;;;;;;;5005082;28;20186;-57
2021/12/16 11:39:22;;;;;;;41.07;26.03;;;;;;;;;;5011177;28;20179;-56
2021/12/16 11:41:50;;;;;;;37.17;24.87;;;;;;;;;;5008533;28;20563;-56
2021/12/16 11:44:20;;;;;;;39.93;26.27;;;;;;;;;;5009472;28;20189;-57
2021/12/16 11:46:46;;;;;;;42.37;26.67;;;;;;;;;;4989195;28;20198;-57
2021/12/16 11:49:37;;;;;;;35.63;24.33;;;;;;;;;;5009336;28;20638;-56
2021/12/16 11:52:05;;;;;;;34.00;24.77;;;;;;;;;;5010131;28;20182;-57
2021/12/16 11:54:34;;;;;;;39.00;25.30;;;;;;;;;;5008542;28;20194;-57
2021/12/16 11:57:03;;;;;;;33.10;23.50;;;;;;;;;;5024863;28;20233;-56
2021/12/16 11:59:35;;;;;;;37.63;24.60;;;;;;;;;;5024402;28;20186;-56
2021/12/16 12:02:01;;;;;;;33.40;22.83;;;;;;;;;;5029134;28;20444;-56
2021/12/16 12:04:33;;;;;;;33.27;24.13;;;;;;;;;;5029482;28;20193;-57
2021/12/16 12:06:59;;;;;;;36.63;24.93;;;;;;;;;;5017404;28;20220;-56
2021/12/16 12:09:36;;;;;;;35.30;26.03;;;;;;;;;;5029337;28;20182;-56
2021/12/16 12:12:02;;;;;;;35.03;24.23;;;;;;;;;;5025357;28;20182;-56
2021/12/16 12:14:32;;;;;;;35.37;24.07;;;;;;;;;;5025788;28;20884;-56
2021/12/16 12:17:09;;;;;;;40.28;30.75;;;;;;;;;;5027217;28;20496;-56
2021/12/16 12:19:41;;;;;;;31.33;23.13;;;;;;;;;;5028657;28;20264;-56
2021/12/16 12:22:07;;;;;;;34.23;24.70;;;;;;;;;;5017930;28;20197;-56
2021/12/16 12:24:34;;;;;;;38.87;25.87;;;;;;;;;;5020278;28;20170;-56
2021/12/16 12:27:00;;;;;;;40.10;25.23;;;;;;;;;;5021893;28;20229;-57
2021/12/16 12:29:28;;;;;;;39.70;25.27;;;;;;;;;;5020599;28;20184;-57
2021/12/16 12:32:03;;;;;;;40.17;24.93;;;;;;;;;;5020691;28;20292;-56
2021/12/16 12:34:30;;;;;;;43.43;26.30;;;;;;;;;;5021235;28;20712;-56
2021/12/16 12:36:57;;;;;;;39.83;25.83;;;;;;;;;;5021046;28;20373;-56
2021/12/16 12:39:27;;;;;;;38.30;24.77;;;;;;;;;;5020697;28;20184;-56
2021/12/16 12:41:53;;;;;;;42.37;25.60;;;;;;;;;;5019351;28;20673;-56
2021/12/16 12:44:19;;;;;;;38.40;25.90;;;;;;;;;;5020704;28;20182;-56
2021/12/16 12:46:46;;;;;;;36.80;23.77;;;;;;;;;;5024715;28;20681;-56
2021/12/16 12:49:14;;;;;;;37.70;24.93;;;;;;;;;;5021467;28;20213;-56
2021/12/16 12:51:44;;;;;;;40.00;25.20;;;;;;;;;;5027619;28;20185;-57
2021/12/16 12:54:30;;;;;;;42.67;26.07;;;;;;;;;;5028076;28;20196;-57
2021/12/16 12:56:58;;;;;;;39.57;25.67;;;;;;;;;;5023598;28;20287;-57
2021/12/16 12:59:38;;;;;;;41.77;27.80;;;;;;;;;;5023478;28;20186;-56
2021/12/16 13:02:26;;;;;;;42.47;27.43;;;;;;;;;;5024962;28;20185;-56
2021/12/16 13:04:59;;;;;;;42.20;25.87;;;;;;;;;;5024831;28;20540;-56
2021/12/16 13:07:36;;;;;;;38.83;24.50;;;;;;;;;;5024179;28;20201;-56
2021/12/16 13:10:08;;;;;;;42.43;26.60;;;;;;;;;;5023968;28;20561;-56
2021/12/16 13:12:49;;;;;;;42.87;26.10;;;;;;;;;;5024704;28;20181;-56
2021/12/16 13:15:33;;;;;;;38.47;25.07;;;;;;;;;;5024463;28;20479;-56
2021/12/16 13:23:38;;;;;;;42.60;25.03;;;;;;;;;;5025241;28;20217;-56
2021/12/16 13:29:21;;;;;;;41.87;24.97;;;;;;;;;;5023600;28;20679;-56
2021/12/16 13:32:04;;;;;;;42.57;26.37;;;;;;;;;;5022961;28;20599;-56
2021/12/16 13:34:48;;;;;;;37.80;23.97;;;;;;;;;;4991361;28;20185;-56
2021/12/16 13:37:22;;;;;;;38.93;26.27;;;;;;;;;;5023993;28;20181;-57
2021/12/16 13:39:49;;;;;;;41.43;25.63;;;;;;;;;;5022698;28;20244;-56
2021/12/16 13:42:16;;;;;;;43.43;25.57;;;;;;;;;;5023967;28;20189;-57
2021/12/16 13:45:00;;;;;;;44.80;28.20;;;;;;;;;;5023586;28;20181;-56
2021/12/16 13:47:40;;;;;;;48.13;26.37;;;;;;;;;;5023269;28;20293;-56
2021/12/16 14:01:37;;;;;;;67.87;34.07;;;;;;;;;;5026823;28;20730;-57
2021/12/16 14:04:38;;;;;;;66.43;34.43;;;;;;;;;;5030605;28;20208;-57
2021/12/16 14:10:10;;;;;;;67.87;35.37;;;;;;;;;;5027122;28;20232;-57
2021/12/16 14:15:44;;;;;;;73.80;37.07;;;;;;;;;;5035011;28;20181;-56
2021/12/16 14:22:56;;;;;;;70.83;36.10;;;;;;;;;;5035141;28;20467;-57
2021/12/16 14:24:15;;;;;;;70.37;37.00;;;;;;;;;;5030069;28;20201;-56
2021/12/16 14:42:28;;;;;;;73.80;37.63;;;;;;;;;;5030538;28;20177;-57
2021/12/16 14:47:51;;;;;;;77.57;37.00;;;;;;;;;;5027766;28;20205;-57
2021/12/16 14:50:26;;;;;;;74.67;37.87;;;;;;;;;;5027691;28;20185;-56
2021/12/16 14:52:52;;;;;;;65.67;35.73;;;;;;;;;;5029441;28;20205;-56
2021/12/16 14:55:19;;;;;;;64.93;34.83;;;;;;;;;;5027984;28;20620;-57
2021/12/16 14:57:56;;;;;;;68.13;35.67;;;;;;;;;;5031958;28;20707;-57
2021/12/16 15:00:34;;;;;;;74.70;36.37;;;;;;;;;;5016235;28;20194;-56
2021/12/16 15:03:12;;;;;;;74.80;36.27;;;;;;;;;;5025876;28;20189;-56
2021/12/16 15:05:43;;;;;;;70.37;35.00;;;;;;;;;;5020099;28;20280;-57
2021/12/16 15:08:26;;;;;;;78.57;37.63;;;;;;;;;;5028707;28;20248;-56
2021/12/16 15:10:53;;;;;;;70.30;36.53;;;;;;;;;;5026072;28;20220;-56
2021/12/16 15:13:29;;;;;;;71.90;35.43;;;;;;;;;;5022492;28;20305;-56
2021/12/16 15:37:43;;;;;;;62.50;32.90;;;;;;;;;;5030478;28;20203;-56
2021/12/16 15:43:17;;;;;;;60.87;33.00;;;;;;;;;;5002554;28;20183;-56
2021/12/16 15:45:45;;;;;;;62.17;33.60;;;;;;;;;;5004105;28;20236;-56
2021/12/16 15:48:14;;;;;;;64.33;34.77;;;;;;;;;;5015614;28;20309;-57
2021/12/16 15:50:44;;;;;;;55.53;32.20;;;;;;;;;;5027578;28;20304;-56
2021/12/16 15:53:12;;;;;;;65.87;34.00;;;;;;;;;;5026935;28;20185;-57
2021/12/16 15:55:41;;;;;;;63.47;34.47;;;;;;;;;;5025805;28;20230;-56
2021/12/16 15:58:09;;;;;;;71.73;34.53;;;;;;;;;;5025588;28;20667;-57
2021/12/16 16:00:38;;;;;;;64.90;34.40;;;;;;;;;;5020034;28;20182;-57
2021/12/16 16:03:05;;;;;;;70.07;35.00;;;;;;;;;;5021880;28;20189;-57
2021/12/16 16:05:34;;;;;;;65.13;34.30;;;;;;;;;;5027800;28;20178;-56
2021/12/16 16:08:01;;;;;;;61.40;34.57;;;;;;;;;;5028933;28;20209;-56
2021/12/16 16:10:28;;;;;;;64.53;34.43;;;;;;;;;;5025128;28;20606;-57
2021/12/16 16:12:54;;;;;;;67.27;36.60;;;;;;;;;;5026732;28;20182;-56
2021/12/16 16:15:22;;;;;;;60.93;34.43;;;;;;;;;;5027052;28;20629;-56
2021/12/16 16:18:12;;;;;;;68.53;38.90;;;;;;;;;;5028387;28;20610;-58
2021/12/16 16:20:38;;;;;;;73.00;35.53;;;;;;;;;;5024103;28;20190;-56
2021/12/16 16:23:08;;;;;;;75.37;35.63;;;;;;;;;;5023388;28;20185;-57
2021/12/16 16:25:35;;;;;;;69.37;35.17;;;;;;;;;;5027760;28;20213;-57
2021/12/16 16:28:02;;;;;;;71.83;36.03;;;;;;;;;;5028257;28;21730;-57
2021/12/16 16:30:29;;;;;;;62.67;35.40;;;;;;;;;;5020408;28;20264;-58
2021/12/16 16:33:07;;;;;;;62.97;33.43;;;;;;;;;;5018314;28;20178;-57
2021/12/16 16:35:35;;;;;;;58.07;32.97;;;;;;;;;;5018663;28;20194;-57
2021/12/16 16:38:08;;;;;;;61.97;32.93;;;;;;;;;;5032911;28;20189;-57
2021/12/16 16:40:38;;;;;;;66.03;34.20;;;;;;;;;;5025367;28;20186;-57
2021/12/16 16:43:16;;;;;;;62.07;33.40;;;;;;;;;;5016420;28;20193;-56
2021/12/16 16:45:43;;;;;;;63.87;35.20;;;;;;;;;;5004701;28;20188;-58
2021/12/16 16:48:28;;;;;;;65.17;33.07;;;;;;;;;;5027974;28;20211;-57
2021/12/16 16:51:09;;;;;;;58.33;32.83;;;;;;;;;;5013646;28;20182;-56
2021/12/16 16:53:44;;;;;;;54.13;29.47;;;;;;;;;;5025400;28;20264;-57
2021/12/16 16:56:10;;;;;;;51.20;30.47;;;;;;;;;;5029790;28;20217;-57
2021/12/16 16:58:36;;;;;;;57.17;32.47;;;;;;;;;;5009266;28;20640;-57
2021/12/16 17:01:03;;;;;;;52.67;30.40;;;;;;;;;;5015844;28;20185;-58
2021/12/16 17:03:30;;;;;;;50.77;29.30;;;;;;;;;;5026693;28;20603;-57
2021/12/16 17:06:02;;;;;;;53.57;31.13;;;;;;;;;;5025371;28;20562;-57
2021/12/16 17:08:33;;;;;;;54.57;30.90;;;;;;;;;;5007249;28;20213;-58
2021/12/16 17:11:02;;;;;;;65.50;32.13;;;;;;;;;;5025682;28;20181;-57
2021/12/16 17:18:41;;;;;;;59.73;32.80;;;;;;;;;;5022418;28;20201;-57
2021/12/16 17:21:22;;;;;;;56.67;31.10;;;;;;;;;;5019699;28;20186;-57
2021/12/16 17:23:50;;;;;;;54.10;31.50;;;;;;;;;;5025380;28;20637;-58
2021/12/16 17:26:28;;;;;;;60.27;31.03;;;;;;;;;;5025590;28;20185;-58
2021/12/16 17:28:56;;;;;;;53.17;30.73;;;;;;;;;;5028210;28;20208;-57
2021/12/16 17:31:31;;;;;;;56.40;27.93;;;;;;;;;;5022749;28;20221;-58
2021/12/16 17:34:05;;;;;;;53.13;29.73;;;;;;;;;;5023114;28;20841;-58
2021/12/16 17:36:32;;;;;;;53.83;31.43;;;;;;;;;;5019295;28;20248;-57
2021/12/16 17:39:07;;;;;;;51.97;29.90;;;;;;;;;;5021779;28;20185;-57
2021/12/16 17:41:33;;;;;;;56.60;31.80;;;;;;;;;;5026187;28;20219;-57
2021/12/16 17:43:59;;;;;;;52.43;29.60;;;;;;;;;;5021465;28;20388;-57
2021/12/16 17:46:25;;;;;;;50.70;28.60;;;;;;;;;;5022128;28;20606;-56
2021/12/16 17:48:51;;;;;;;53.30;30.63;;;;;;;;;;5023911;28;20677;-56
2021/12/16 17:51:20;;;;;;;52.10;29.30;;;;;;;;;;5021402;28;20570;-57
2021/12/16 17:53:49;;;;;;;51.33;29.57;;;;;;;;;;5020961;28;20668;-55
2021/12/16 17:56:15;;;;;;;51.47;28.77;;;;;;;;;;5021418;28;20290;-56
2021/12/16 17:58:42;;;;;;;49.00;29.17;;;;;;;;;;5021575;28;20192;-56
2021/12/16 18:01:13;;;;;;;50.77;30.23;;;;;;;;;;5020199;28;20185;-56
2021/12/16 18:03:45;;;;;;;57.13;30.10;;;;;;;;;;5022663;28;20190;-56
2021/12/16 18:06:15;;;;;;;48.20;26.80;;;;;;;;;;5022157;28;20204;-57
2021/12/16 18:08:43;;;;;;;47.97;28.17;;;;;;;;;;5024974;28;20202;-56
2021/12/16 18:11:12;;;;;;;54.73;30.13;;;;;;;;;;5022072;28;20634;-56
2021/12/16 18:13:46;;;;;;;45.13;27.23;;;;;;;;;;5022175;28;20181;-56
2021/12/16 18:16:21;;;;;;;51.23;26.57;;;;;;;;;;5020451;28;20184;-57